createdAt,value
2022-08-17T00:02:25.893Z,21.44
2022-08-17T00:07:30.881Z,21.36
2022-08-17T00:12:44.335Z,21.25
2022-08-17T00:17:49.125Z,21.21
2022-08-17T00:23:02.593Z,21.13
2022-08-17T00:28:06.145Z,21.07
2022-08-17T00:33:15.711Z,21.05
2022-08-17T00:38:21.592Z,21.00
2022-08-17T00:43:30.927Z,20.88
2022-08-17T00:48:34.489Z,20.86
2022-08-17T00:53:51.294Z,20.88
2022-08-17T00:58:56.188Z,20.84
2022-08-17T01:03:59.886Z,20.87
2022-08-17T01:09:05.529Z,20.73
2022-08-17T01:14:08.921Z,20.69
2022-08-17T01:19:17.233Z,20.69
2022-08-17T01:24:21.447Z,20.70
2022-08-17T01:29:25.397Z,20.69
2022-08-17T01:34:42.831Z,20.69
2022-08-17T01:39:56.979Z,20.64
2022-08-17T01:45:05.232Z,20.61
2022-08-17T01:50:10.771Z,20.58
2022-08-17T01:55:18.033Z,20.51
2022-08-17T02:00:20.861Z,20.37
2022-08-17T02:05:23.666Z,20.29
2022-08-17T02:10:33.708Z,20.21
2022-08-17T02:15:37.071Z,20.16
2022-08-17T02:20:42.511Z,20.11
2022-08-17T02:25:48.853Z,20.09
2022-08-17T02:31:01.353Z,19.99
2022-08-17T02:36:08.925Z,19.80
2022-08-17T02:41:13.419Z,19.64
2022-08-17T02:46:16.097Z,19.49
2022-08-17T02:51:19.402Z,19.25
2022-08-17T02:56:23.663Z,19.06
2022-08-17T03:01:28.024Z,18.91
2022-08-17T03:06:31.791Z,18.87
2022-08-17T03:11:36.126Z,18.97
2022-08-17T03:16:38.976Z,19.02
2022-08-17T03:21:42.117Z,18.91
2022-08-17T03:26:46.313Z,18.76
2022-08-17T03:31:49.711Z,18.66
2022-08-17T03:36:52.538Z,18.48
2022-08-17T03:42:02.585Z,18.40
2022-08-17T03:47:22.964Z,18.33
2022-08-17T03:52:43.241Z,18.21
2022-08-17T03:57:48.889Z,18.22
2022-08-17T04:02:51.879Z,18.21
2022-08-17T04:07:54.970Z,18.23
2022-08-17T04:12:59.356Z,18.18
2022-08-17T04:18:02.142Z,18.09
2022-08-17T04:23:09.388Z,18.02
2022-08-17T04:28:16.138Z,17.97
2022-08-17T04:33:21.771Z,17.90
2022-08-17T04:38:26.762Z,17.82
2022-08-17T04:43:32.530Z,17.73
2022-08-17T04:48:38.016Z,17.71
2022-08-17T04:53:42.469Z,17.65
2022-08-17T04:58:49.782Z,17.66
2022-08-17T05:03:53.981Z,17.71
2022-08-17T05:08:57.947Z,17.86
2022-08-17T05:14:02.138Z,18.03
2022-08-17T05:19:04.958Z,18.19
2022-08-17T05:24:38.177Z,18.35
2022-08-17T05:29:34.298Z,18.39
2022-08-17T05:34:38.415Z,18.48
2022-08-17T05:39:41.725Z,18.46
2022-08-17T05:44:45.893Z,18.60
2022-08-17T05:49:48.965Z,18.65
2022-08-17T05:55:03.720Z,18.84
2022-08-17T06:00:17.010Z,19.06
2022-08-17T06:05:38.678Z,19.24
2022-08-17T06:10:48.134Z,19.31
2022-08-17T06:15:59.200Z,19.51
2022-08-17T06:21:06.404Z,19.70
2022-08-17T06:26:13.895Z,19.76
2022-08-17T06:31:22.547Z,19.79
2022-08-17T06:36:40.750Z,19.80
2022-08-17T06:41:52.067Z,19.94
2022-08-17T06:47:04.595Z,20.09
2022-08-17T06:52:43.432Z,20.24
2022-08-17T06:57:43.367Z,20.29
2022-08-17T07:02:54.312Z,20.42
2022-08-17T07:08:04.352Z,20.56
2022-08-17T07:13:22.846Z,20.74
2022-08-17T07:18:33.030Z,20.93
2022-08-17T07:23:50.743Z,21.01
2022-08-17T07:28:56.148Z,21.17
2022-08-17T07:34:06.706Z,21.20
2022-08-17T07:39:10.633Z,21.38
2022-08-17T07:44:16.374Z,21.62
2022-08-17T07:49:37.092Z,21.81
2022-08-17T07:54:42.037Z,21.96
2022-08-17T08:00:12.632Z,21.91
2022-08-17T08:05:30.719Z,21.68
2022-08-17T08:11:00.237Z,21.69
2022-08-17T08:16:24.378Z,21.75
2022-08-17T08:21:46.442Z,21.72
2022-08-17T08:26:58.019Z,21.64
2022-08-17T08:32:08.754Z,21.75
2022-08-17T08:37:35.529Z,21.82
2022-08-17T08:42:51.172Z,21.93
2022-08-17T08:48:22.781Z,22.02
2022-08-17T08:53:48.567Z,22.23
2022-08-17T08:58:59.214Z,22.40
2022-08-17T09:04:24.568Z,22.62
2022-08-17T09:09:43.771Z,22.83
2022-08-17T09:14:55.443Z,23.03
2022-08-17T09:20:05.020Z,23.30
2022-08-17T09:25:13.547Z,23.44
2022-08-17T09:30:16.778Z,23.37
2022-08-17T09:35:25.060Z,23.57
2022-08-17T09:40:46.089Z,23.85
2022-08-17T09:45:54.263Z,24.06
2022-08-17T09:51:06.415Z,24.60
2022-08-17T09:56:35.178Z,25.09
2022-08-17T10:01:40.739Z,25.47
2022-08-17T10:06:53.407Z,25.58
2022-08-17T10:12:23.578Z,25.25
2022-08-17T10:17:42.318Z,25.13
2022-08-17T10:23:10.037Z,25.06
2022-08-17T10:28:20.301Z,25.01
2022-08-17T10:33:27.877Z,24.90
2022-08-17T10:38:47.038Z,24.80
2022-08-17T10:44:37.175Z,25.00
2022-08-17T10:49:30.273Z,25.41
2022-08-17T10:54:39.185Z,25.69
2022-08-17T10:59:53.905Z,25.66
2022-08-17T11:05:10.200Z,25.73
2022-08-17T11:10:28.782Z,25.93
2022-08-17T11:15:51.450Z,26.13
2022-08-17T11:21:13.333Z,26.08
2022-08-17T11:26:26.152Z,26.32
2022-08-17T11:31:38.474Z,26.49
2022-08-17T11:37:08.725Z,26.71
2022-08-17T11:42:27.127Z,26.80
2022-08-17T11:48:16.360Z,26.78
2022-08-17T11:54:31.512Z,27.03
2022-08-17T12:00:08.357Z,27.21
2022-08-17T12:05:30.914Z,27.39
2022-08-17T12:10:37.256Z,27.62
2022-08-17T12:15:49.511Z,27.74
2022-08-17T12:21:12.089Z,27.91
2022-08-17T12:26:22.101Z,28.00
2022-08-17T12:31:27.383Z,27.86
2022-08-17T12:36:33.018Z,27.93
2022-08-17T12:41:39.432Z,27.96
2022-08-17T12:46:57.365Z,28.07
2022-08-17T12:52:13.980Z,28.23
2022-08-17T12:57:19.597Z,28.37
2022-08-17T13:02:33.392Z,28.48
2022-08-17T13:07:43.090Z,28.53
2022-08-17T13:12:46.006Z,28.60
2022-08-17T13:18:02.084Z,28.69
2022-08-17T13:23:12.471Z,28.46
2022-08-17T13:28:35.730Z,28.68
2022-08-17T13:33:43.710Z,28.51
2022-08-17T13:38:51.664Z,28.69
2022-08-17T13:43:54.494Z,29.10
2022-08-17T13:49:02.921Z,29.43
2022-08-17T13:54:20.317Z,29.71
2022-08-17T13:59:38.212Z,29.79
2022-08-17T14:04:54.757Z,29.84
2022-08-17T14:10:02.026Z,29.80
2022-08-17T14:15:06.128Z,29.65
2022-08-17T14:20:12.144Z,29.64
2022-08-17T14:25:19.544Z,29.64
2022-08-17T14:30:24.909Z,29.73
2022-08-17T14:35:29.315Z,29.74
2022-08-17T14:40:34.696Z,29.51
2022-08-17T14:45:37.494Z,29.36
2022-08-17T14:50:43.505Z,28.84
2022-08-17T14:55:47.700Z,28.49
2022-08-17T15:00:51.814Z,27.99
2022-08-17T15:05:55.230Z,27.07
2022-08-17T15:10:59.294Z,26.07
2022-08-17T15:16:02.507Z,25.49
2022-08-17T15:21:05.908Z,25.12
2022-08-17T15:26:12.574Z,25.10
2022-08-17T15:31:15.687Z,24.92
2022-08-17T15:36:19.017Z,24.83
2022-08-17T15:41:23.190Z,24.61
2022-08-17T15:46:27.147Z,24.43
2022-08-17T15:51:31.106Z,24.06
2022-08-17T15:56:35.334Z,23.33
2022-08-17T16:03:01.792Z,21.95
2022-08-17T16:07:02.508Z,18.56
2022-08-17T16:12:14.791Z,17.74
2022-08-17T16:17:38.301Z,17.64
2022-08-17T16:22:43.875Z,17.71
2022-08-17T16:27:53.413Z,17.73
2022-08-17T16:32:58.241Z,16.52
2022-08-17T16:38:01.134Z,15.44
2022-08-17T16:43:10.539Z,15.07
2022-08-17T16:48:15.616Z,14.83
2022-08-17T16:53:19.049Z,15.14
2022-08-17T16:58:26.213Z,15.08
2022-08-17T17:03:31.329Z,15.42
2022-08-17T17:08:42.095Z,15.85
2022-08-17T17:13:54.119Z,16.13
2022-08-17T17:19:10.176Z,16.40
2022-08-17T17:24:18.706Z,16.56
2022-08-17T17:29:33.970Z,16.55
2022-08-17T17:34:58.759Z,16.43
2022-08-17T17:40:06.185Z,16.56
2022-08-17T17:45:18.302Z,16.57
2022-08-17T17:50:25.792Z,16.37
2022-08-17T17:56:02.814Z,16.62
2022-08-17T18:01:20.723Z,16.65
2022-08-17T18:06:35.540Z,16.81
2022-08-17T18:12:02.558Z,16.94
2022-08-17T18:17:07.823Z,17.03
2022-08-17T18:22:17.703Z,17.00
2022-08-17T18:27:24.811Z,16.97
2022-08-17T18:32:35.774Z,16.83
2022-08-17T18:37:42.715Z,16.81
2022-08-17T18:42:47.620Z,16.97
2022-08-17T18:47:56.085Z,16.85
2022-08-17T18:53:21.478Z,16.85
2022-08-17T18:58:29.765Z,16.86
2022-08-17T19:03:43.418Z,16.90
2022-08-17T19:08:46.243Z,16.91
2022-08-17T19:13:55.905Z,16.89
2022-08-17T19:19:05.938Z,16.90
2022-08-17T19:24:19.223Z,16.93
2022-08-17T19:29:26.287Z,16.89
2022-08-17T19:34:34.609Z,16.91
2022-08-17T19:39:44.789Z,16.88
2022-08-17T19:44:56.557Z,16.79
2022-08-17T19:50:09.768Z,16.74
2022-08-17T19:55:22.147Z,16.71
2022-08-17T20:00:25.369Z,16.60
2022-08-17T20:05:44.415Z,16.60
2022-08-17T20:11:00.427Z,16.57
2022-08-17T20:16:04.743Z,16.53
2022-08-17T20:21:19.975Z,16.58
2022-08-17T20:26:27.296Z,16.62
2022-08-17T20:31:45.913Z,16.63
2022-08-17T20:37:01.703Z,16.68
2022-08-17T20:42:09.030Z,16.72
2022-08-17T20:47:21.790Z,16.71
2022-08-17T20:52:47.891Z,16.70
2022-08-17T20:57:50.828Z,16.71
2022-08-17T21:03:50.567Z,16.71
2022-08-17T21:09:29.658Z,16.70
2022-08-17T21:14:42.131Z,16.65
2022-08-17T21:20:11.069Z,16.63
2022-08-17T21:25:34.506Z,16.63
2022-08-17T21:30:47.598Z,16.59
2022-08-17T21:35:54.336Z,16.66
2022-08-17T21:41:02.922Z,16.72
2022-08-17T21:46:09.384Z,16.75
2022-08-17T21:51:17.617Z,16.75
2022-08-17T21:56:30.233Z,16.76
2022-08-17T22:01:35.841Z,16.69
2022-08-17T22:06:41.028Z,16.62
2022-08-17T22:12:04.402Z,16.52
2022-08-17T22:17:15.710Z,16.46
2022-08-17T22:22:28.665Z,16.46
2022-08-17T22:27:54.077Z,16.52
2022-08-17T22:32:58.125Z,16.61
2022-08-17T22:38:29.687Z,16.62
2022-08-17T22:43:43.084Z,16.45
2022-08-17T22:48:50.179Z,16.34
2022-08-17T22:54:13.529Z,16.25
2022-08-17T22:59:34.102Z,16.23
2022-08-17T23:04:39.458Z,16.21
2022-08-17T23:09:42.694Z,16.36
2022-08-17T23:14:49.367Z,16.38
2022-08-17T23:19:52.169Z,16.43
2022-08-17T23:24:55.210Z,16.37
2022-08-17T23:29:59.854Z,16.42
2022-08-17T23:35:02.634Z,16.29
2022-08-17T23:40:06.402Z,16.19
2022-08-17T23:45:11.339Z,16.14
2022-08-17T23:50:14.553Z,16.12
2022-08-17T23:55:17.590Z,16.12
